createdAt,value
2018-10-11T00:01:34.231Z,34.47
2018-10-11T00:04:03.287Z,30.83
2018-10-11T00:06:32.053Z,30.40
2018-10-11T00:09:00.902Z,26.67
2018-10-11T00:11:29.773Z,24.93
2018-10-11T00:13:58.498Z,37.57
2018-10-11T00:16:27.244Z,31.57
2018-10-11T00:18:56.032Z,26.97
2018-10-11T00:21:24.823Z,27.37
2018-10-11T00:23:53.680Z,28.50
2018-10-11T00:26:22.576Z,24.37
2018-10-11T00:28:51.351Z,26.77
2018-10-11T00:31:20.108Z,28.33
2018-10-11T00:33:48.784Z,24.53
2018-10-11T00:36:17.504Z,27.73
2018-10-11T00:38:46.287Z,26.23
2018-10-11T00:41:14.991Z,24.70
2018-10-11T00:43:43.711Z,25.23
2018-10-11T00:46:12.402Z,29.93
2018-10-11T00:48:41.130Z,27.80
2018-10-11T00:51:09.969Z,30.43
2018-10-11T00:53:38.840Z,28.40
2018-10-11T00:56:07.720Z,27.87
2018-10-11T00:58:36.425Z,27.80
2018-10-11T01:01:05.180Z,25.33
2018-10-11T01:03:33.933Z,26.80
2018-10-11T01:06:02.650Z,32.23
2018-10-11T01:08:31.332Z,44.30
2018-10-11T01:11:00.126Z,28.63
2018-10-11T01:13:28.812Z,26.47
2018-10-11T01:15:57.588Z,25.97
2018-10-11T01:18:26.499Z,24.13
2018-10-11T01:20:55.460Z,25.50
2018-10-11T01:23:24.160Z,22.80
2018-10-11T01:25:52.829Z,26.77
2018-10-11T01:28:21.480Z,24.20
2018-10-11T01:30:55.577Z,25.63
2018-10-11T01:33:24.336Z,22.27
2018-10-11T01:35:53.104Z,26.27
2018-10-11T01:38:21.920Z,24.53
2018-10-11T01:40:50.715Z,20.93
2018-10-11T01:43:19.470Z,22.57
2018-10-11T01:45:48.234Z,22.77
2018-10-11T01:48:16.934Z,23.17
2018-10-11T01:50:45.734Z,25.33
2018-10-11T01:53:14.547Z,25.67
2018-10-11T01:55:43.332Z,31.93
2018-10-11T01:58:12.021Z,26.67
2018-10-11T02:00:40.719Z,26.07
2018-10-11T02:03:09.460Z,26.97
2018-10-11T02:05:38.126Z,24.50
2018-10-11T02:08:07.080Z,24.97
2018-10-11T02:10:35.774Z,23.03
2018-10-11T02:13:04.487Z,27.43
2018-10-11T02:15:33.227Z,22.57
2018-10-11T02:18:01.908Z,27.40
2018-10-11T02:20:30.613Z,27.30
2018-10-11T02:22:59.268Z,27.33
2018-10-11T02:25:27.984Z,26.83
2018-10-11T02:27:56.702Z,26.40
2018-10-11T02:30:25.424Z,28.43
2018-10-11T02:32:54.217Z,28.20
2018-10-11T02:35:22.896Z,37.03
2018-10-11T02:37:51.614Z,27.37
2018-10-11T02:40:20.290Z,27.40
2018-10-11T02:42:48.995Z,29.97
2018-10-11T02:45:17.678Z,25.80
2018-10-11T02:47:46.422Z,32.77
2018-10-11T02:50:15.156Z,32.43
2018-10-11T02:52:43.862Z,31.50
2018-10-11T02:55:22.511Z,31.70
2018-10-11T02:58:03.017Z,36.83
2018-10-11T03:00:32.859Z,30.47
2018-10-11T03:03:02.649Z,34.53
2018-10-11T03:05:33.927Z,31.37
2018-10-11T03:08:02.750Z,34.00
2018-10-11T03:10:31.535Z,35.00
2018-10-11T03:13:00.364Z,29.77
2018-10-11T03:15:29.097Z,32.50
2018-10-11T03:17:57.825Z,32.53
2018-10-11T03:20:26.529Z,41.57
2018-10-11T03:22:55.265Z,40.70
2018-10-11T03:25:23.948Z,36.70
2018-10-11T03:27:52.608Z,32.27
2018-10-11T03:30:21.355Z,32.17
2018-10-11T03:32:50.041Z,36.60
2018-10-11T03:35:18.759Z,39.10
2018-10-11T03:37:47.411Z,38.67
2018-10-11T03:40:16.067Z,39.97
2018-10-11T03:42:44.752Z,36.33
2018-10-11T03:45:13.416Z,37.10
2018-10-11T03:47:42.102Z,38.43
2018-10-11T03:50:10.721Z,35.80
2018-10-11T03:52:39.466Z,32.40
2018-10-11T03:55:08.109Z,39.57
2018-10-11T03:57:36.772Z,33.37
2018-10-11T04:00:06.350Z,38.33
2018-10-11T04:02:35.025Z,42.33
2018-10-11T04:05:03.731Z,35.60
2018-10-11T04:07:32.475Z,34.23
2018-10-11T04:10:01.135Z,35.60
2018-10-11T04:12:30.083Z,34.13
2018-10-11T04:14:58.796Z,34.83
2018-10-11T04:17:27.476Z,36.87
2018-10-11T04:19:56.255Z,34.90
2018-10-11T04:22:24.935Z,37.33
2018-10-11T04:24:53.742Z,36.23
2018-10-11T04:27:22.394Z,35.90
2018-10-11T04:29:51.436Z,32.87
2018-10-11T04:32:20.120Z,45.67
2018-10-11T04:34:48.810Z,43.27
2018-10-11T04:37:17.438Z,34.67
2018-10-11T04:39:46.145Z,33.47
2018-10-11T04:42:14.961Z,32.53
2018-10-11T04:44:43.687Z,42.40
2018-10-11T04:47:12.464Z,32.03
2018-10-11T04:49:41.216Z,31.23
2018-10-11T04:52:09.913Z,34.40
2018-10-11T04:54:38.588Z,33.37
2018-10-11T04:57:07.266Z,36.33
2018-10-11T04:59:36.098Z,37.47
2018-10-11T05:02:04.769Z,37.70
2018-10-11T05:04:33.482Z,33.83
2018-10-11T05:07:02.197Z,40.03
2018-10-11T05:09:30.914Z,38.73
2018-10-11T05:11:59.622Z,41.77
2018-10-11T05:14:28.345Z,38.43
2018-10-11T05:16:57.040Z,38.10
2018-10-11T05:19:25.829Z,29.33
2018-10-11T05:21:54.845Z,37.77
2018-10-11T05:24:23.550Z,38.20
2018-10-11T05:26:52.232Z,41.07
2018-10-11T05:29:20.869Z,37.37
2018-10-11T05:31:49.633Z,38.23
2018-10-11T05:34:18.339Z,31.73
2018-10-11T05:36:47.071Z,33.60
2018-10-11T05:39:15.768Z,34.20
2018-10-11T05:41:44.517Z,32.33
2018-10-11T05:44:13.391Z,33.47
2018-10-11T05:46:42.182Z,33.87
2018-10-11T05:49:11.013Z,38.50
2018-10-11T05:51:39.808Z,34.13
2018-10-11T05:54:08.994Z,35.30
2018-10-11T05:56:40.766Z,33.77
2018-10-11T05:59:09.679Z,33.67
2018-10-11T06:01:38.838Z,37.33
2018-10-11T06:04:09.131Z,31.10
2018-10-11T06:06:37.847Z,31.93
2018-10-11T06:09:08.343Z,35.10
2018-10-11T06:11:37.151Z,29.20
2018-10-11T06:14:05.956Z,25.87
2018-10-11T06:16:35.027Z,31.53
2018-10-11T06:19:03.918Z,33.50
2018-10-11T06:21:32.713Z,32.67
2018-10-11T06:24:01.559Z,23.57
2018-10-11T06:26:30.349Z,22.17
2018-10-11T06:28:59.261Z,22.67
2018-10-11T06:31:28.234Z,29.00
2018-10-11T06:33:57.110Z,28.33
2018-10-11T06:36:26.170Z,24.43
2018-10-11T06:38:56.880Z,26.83
2018-10-11T06:41:25.718Z,33.13
2018-10-11T06:43:54.574Z,32.47
2018-10-11T06:46:23.338Z,34.63
2018-10-11T06:48:52.219Z,28.00
2018-10-11T06:51:21.082Z,28.93
2018-10-11T06:53:50.953Z,29.27
2018-10-11T06:56:19.992Z,28.10
2018-10-11T06:58:48.665Z,26.93
2018-10-11T07:01:17.376Z,26.47
2018-10-11T07:03:46.082Z,28.27
2018-10-11T07:06:14.837Z,32.70
2018-10-11T07:08:44.501Z,27.37
2018-10-11T07:11:13.175Z,34.97
2018-10-11T07:13:42.014Z,31.00
2018-10-11T07:16:10.803Z,28.50
2018-10-11T07:18:39.525Z,28.00
2018-10-11T07:21:08.288Z,27.03
2018-10-11T07:23:36.949Z,29.43
2018-10-11T07:26:05.656Z,26.80
2018-10-11T07:28:34.706Z,61.87
2018-10-11T07:31:03.390Z,33.10
2018-10-11T07:33:32.109Z,28.50
2018-10-11T07:36:00.786Z,36.53
2018-10-11T07:38:29.542Z,26.70
2018-10-11T07:40:58.294Z,28.07
2018-10-11T07:43:26.942Z,32.73
2018-10-11T07:45:55.577Z,31.33
2018-10-11T07:48:24.189Z,30.13
2018-10-11T07:50:59.861Z,35.45
2018-10-11T07:53:28.534Z,32.63
2018-10-11T07:55:57.201Z,36.08
2018-10-11T07:58:25.817Z,31.07
2018-10-11T08:00:54.513Z,31.65
2018-10-11T08:03:23.560Z,30.92
2018-10-11T08:05:52.351Z,32.75
2018-10-11T08:08:21.045Z,31.50
2018-10-11T08:10:49.882Z,30.45
2018-10-11T08:13:18.769Z,31.25
2018-10-11T08:15:47.853Z,29.52
2018-10-11T08:18:16.532Z,29.65
2018-10-11T08:20:45.249Z,28.77
2018-10-11T08:23:13.997Z,30.82
2018-10-11T08:25:42.881Z,27.60
2018-10-11T08:28:11.758Z,28.32
2018-10-11T08:30:41.474Z,26.97
2018-10-11T08:33:10.063Z,24.90
2018-10-11T08:35:38.718Z,25.02
2018-10-11T08:38:08.257Z,25.27
2018-10-11T08:40:36.830Z,25.25
2018-10-11T08:43:05.552Z,22.60
2018-10-11T08:45:34.308Z,19.50
2018-10-11T08:48:03.141Z,20.10
2018-10-11T08:50:31.913Z,19.98
2018-10-11T08:53:00.650Z,22.77
2018-10-11T08:55:29.543Z,20.97
2018-10-11T08:57:58.277Z,20.35
2018-10-11T09:00:27.115Z,20.68
2018-10-11T09:02:56.123Z,21.52
2018-10-11T09:05:24.765Z,21.48
2018-10-11T09:07:53.486Z,24.20
2018-10-11T09:10:22.167Z,22.47
2018-10-11T09:12:50.888Z,21.83
2018-10-11T09:17:57.446Z,20.87
2018-10-11T09:20:26.166Z,20.90
2018-10-11T09:22:54.957Z,20.52
2018-10-11T09:25:23.649Z,20.08
2018-10-11T09:27:52.353Z,20.10
2018-10-11T09:30:21.103Z,19.35
2018-10-11T09:32:49.790Z,17.83
2018-10-11T09:35:19.478Z,19.07
2018-10-11T09:37:48.429Z,19.97
2018-10-11T09:40:18.498Z,18.43
2018-10-11T09:42:47.250Z,18.13
2018-10-11T09:45:15.898Z,18.23
2018-10-11T09:47:44.734Z,20.03
2018-10-11T09:50:13.405Z,17.33
2018-10-11T09:52:42.137Z,17.07
2018-10-11T09:55:11.113Z,19.47
2018-10-11T09:57:39.975Z,17.10
2018-10-11T10:00:16.098Z,18.10
2018-10-11T10:02:45.445Z,18.87
2018-10-11T10:05:14.208Z,18.07
2018-10-11T10:07:42.942Z,16.53
2018-10-11T10:10:11.666Z,16.47
2018-10-11T10:12:40.361Z,18.63
2018-10-11T10:15:09.048Z,18.73
2018-10-11T10:17:37.808Z,17.53
2018-10-11T10:20:06.669Z,16.43
2018-10-11T10:22:35.381Z,14.73
2018-10-11T10:25:04.154Z,14.50
2018-10-11T10:27:33.280Z,15.90
2018-10-11T10:30:06.100Z,14.87
2018-10-11T10:32:34.737Z,15.37
2018-10-11T10:35:03.442Z,15.48
2018-10-11T10:37:32.292Z,16.42
2018-10-11T10:40:01.158Z,19.65
2018-10-11T10:42:29.809Z,17.80
2018-10-11T10:44:58.546Z,15.68
2018-10-11T10:47:27.331Z,16.42
2018-10-11T10:49:55.942Z,17.50
2018-10-11T10:52:26.645Z,18.40
2018-10-11T10:54:55.273Z,17.95
2018-10-11T10:57:23.877Z,17.35
2018-10-11T10:59:53.430Z,16.73
2018-10-11T11:02:22.105Z,17.90
2018-10-11T11:04:50.909Z,17.73
2018-10-11T11:07:27.812Z,18.37
2018-10-11T11:09:56.585Z,16.20
2018-10-11T11:12:25.218Z,18.57
2018-10-11T11:14:53.949Z,19.43
2018-10-11T11:17:22.768Z,15.70
2018-10-11T11:19:51.462Z,14.53
2018-10-11T11:22:20.218Z,14.30
2018-10-11T11:24:48.859Z,15.00
2018-10-11T11:27:17.569Z,14.53
2018-10-11T11:29:46.213Z,14.50
2018-10-11T11:32:14.939Z,14.90
2018-10-11T11:34:43.597Z,14.10
2018-10-11T11:37:12.327Z,13.80
2018-10-11T11:39:41.095Z,14.23
2018-10-11T11:42:09.846Z,13.43
2018-10-11T11:44:38.568Z,13.08
2018-10-11T11:47:07.422Z,15.65
2018-10-11T11:49:36.118Z,15.32
2018-10-11T11:52:04.910Z,14.95
2018-10-11T11:54:33.641Z,13.43
2018-10-11T11:57:02.477Z,12.70
2018-10-11T11:59:31.172Z,12.28
2018-10-11T12:02:00.039Z,12.82
2018-10-11T12:04:28.725Z,12.00
2018-10-11T12:06:57.487Z,12.85
2018-10-11T12:09:26.149Z,13.90
2018-10-11T12:11:54.961Z,12.50
2018-10-11T12:14:23.656Z,11.97
2018-10-11T12:16:52.305Z,17.12
2018-10-11T12:19:21.063Z,14.47
2018-10-11T12:21:50.013Z,13.22
2018-10-11T12:24:33.297Z,15.60
2018-10-11T12:27:02.045Z,18.35
2018-10-11T12:29:30.758Z,12.13
2018-10-11T12:31:59.994Z,11.83
2018-10-11T12:34:28.955Z,14.90
2018-10-11T12:36:57.714Z,17.62
2018-10-11T12:39:26.437Z,13.72
2018-10-11T12:41:55.230Z,13.75
2018-10-11T12:44:24.954Z,17.65
2018-10-11T12:46:53.782Z,16.33
2018-10-11T12:49:22.814Z,13.45
2018-10-11T12:51:51.489Z,15.23
2018-10-11T12:54:20.360Z,13.27
2018-10-11T12:56:49.199Z,16.07
2018-10-11T12:59:17.920Z,17.00
2018-10-11T13:01:46.787Z,14.93
2018-10-11T13:04:15.575Z,14.53
2018-10-11T13:06:44.422Z,14.30
2018-10-11T13:09:13.215Z,16.00
2018-10-11T13:11:41.996Z,15.97
2018-10-11T13:14:10.684Z,14.50
2018-10-11T13:16:39.841Z,15.77
2018-10-11T13:19:08.589Z,15.03
2018-10-11T13:21:38.798Z,15.70
2018-10-11T13:24:07.563Z,15.30
2018-10-11T13:26:36.814Z,13.10
2018-10-11T13:29:05.851Z,13.10
2018-10-11T13:31:34.480Z,17.73
2018-10-11T13:34:06.959Z,16.80
2018-10-11T13:36:43.662Z,13.43
2018-10-11T13:39:12.595Z,13.17
2018-10-11T13:41:53.379Z,17.57
2018-10-11T13:44:22.131Z,13.60
2018-10-11T13:46:51.125Z,15.60
2018-10-11T13:49:21.157Z,17.77
2018-10-11T13:51:49.870Z,20.63
2018-10-11T13:54:19.730Z,15.53
2018-10-11T13:56:55.532Z,16.83
2018-10-11T13:59:17.745Z,16.20
2018-10-11T14:01:46.642Z,13.00
2018-10-11T14:04:17.568Z,14.30
2018-10-11T14:06:46.327Z,22.67
2018-10-11T14:09:16.107Z,21.93
2018-10-11T14:11:47.070Z,14.13
2018-10-11T14:14:19.426Z,18.93
2018-10-11T14:16:48.191Z,15.60
2018-10-11T14:19:17.320Z,18.50
2018-10-11T14:21:46.018Z,15.70
2018-10-11T14:24:14.804Z,28.63
2018-10-11T14:26:43.615Z,16.60
2018-10-11T14:29:12.553Z,16.97
2018-10-11T14:31:41.314Z,14.33
2018-10-11T14:34:10.484Z,22.37
2018-10-11T14:36:40.402Z,16.90
2018-10-11T14:39:09.298Z,13.83
2018-10-11T14:41:37.990Z,17.07
2018-10-11T14:44:06.977Z,15.53
2018-10-11T14:46:35.764Z,20.77
2018-10-11T14:49:04.549Z,19.30
2018-10-11T14:51:33.281Z,17.00
2018-10-11T14:54:02.074Z,16.23
2018-10-11T14:56:30.908Z,19.63
2018-10-11T14:58:59.563Z,16.90
2018-10-11T15:01:28.285Z,18.47
2018-10-11T15:03:56.960Z,15.80
2018-10-11T15:06:25.645Z,19.07
2018-10-11T15:08:54.373Z,16.03
2018-10-11T15:11:23.220Z,16.60
2018-10-11T15:13:51.973Z,17.10
2018-10-11T15:16:20.957Z,17.93
2018-10-11T15:18:50.021Z,17.77
2018-10-11T15:21:19.231Z,18.23
2018-10-11T15:23:48.039Z,16.13
2018-10-11T15:26:16.768Z,23.87
2018-10-11T15:28:45.419Z,15.00
2018-10-11T15:31:14.145Z,17.07
2018-10-11T15:33:43.262Z,17.67
2018-10-11T15:36:11.934Z,16.67
2018-10-11T15:38:40.794Z,24.67
2018-10-11T15:41:09.594Z,18.40
2018-10-11T15:43:38.404Z,15.37
2018-10-11T15:46:08.877Z,21.67
2018-10-11T15:48:37.610Z,17.50
2018-10-11T15:51:06.310Z,18.53
2018-10-11T15:53:36.545Z,19.40
2018-10-11T15:56:05.307Z,19.00
2018-10-11T15:58:34.040Z,17.67
2018-10-11T16:01:02.869Z,19.03
2018-10-11T16:03:31.547Z,27.27
2018-10-11T16:06:00.276Z,23.57
2018-10-11T16:08:28.965Z,22.07
2018-10-11T16:10:57.811Z,23.40
2018-10-11T16:13:27.107Z,20.37
2018-10-11T16:15:55.866Z,20.17
2018-10-11T16:18:24.551Z,21.07
2018-10-11T16:20:53.380Z,18.50
2018-10-11T16:23:22.084Z,23.37
2018-10-11T16:25:50.686Z,18.17
2018-10-11T16:28:19.411Z,20.83
2018-10-11T16:30:48.147Z,21.83
2018-10-11T16:33:16.966Z,25.40
2018-10-11T16:35:45.674Z,25.73
2018-10-11T16:38:14.510Z,21.90
2018-10-11T16:40:43.242Z,26.20
2018-10-11T16:43:12.013Z,24.90
2018-10-11T16:45:41.425Z,24.97
2018-10-11T16:48:10.131Z,33.27
2018-10-11T16:50:38.982Z,28.17
2018-10-11T16:53:07.917Z,22.83
2018-10-11T16:55:36.640Z,21.33
2018-10-11T16:58:05.591Z,27.40
2018-10-11T17:00:35.594Z,40.07
2018-10-11T17:03:04.672Z,40.60
2018-10-11T17:05:34.050Z,34.00
2018-10-11T17:08:02.723Z,31.90
2018-10-11T17:10:31.702Z,29.07
2018-10-11T17:13:00.454Z,29.00
2018-10-11T17:15:29.166Z,47.70
2018-10-11T17:17:58.309Z,32.13
2018-10-11T17:20:27.028Z,35.17
2018-10-11T17:22:55.798Z,68.13
2018-10-11T17:25:24.571Z,34.00
2018-10-11T17:27:53.379Z,35.50
2018-10-11T17:30:23.434Z,31.17
2018-10-11T17:32:57.585Z,28.37
2018-10-11T17:35:26.379Z,31.73
2018-10-11T17:37:55.083Z,39.73
2018-10-11T17:40:23.784Z,52.80
2018-10-11T17:42:52.661Z,55.77
2018-10-11T17:45:21.317Z,41.97
2018-10-11T17:47:50.026Z,37.63
2018-10-11T17:50:18.784Z,35.53
2018-10-11T17:52:48.162Z,27.30
2018-10-11T17:55:17.341Z,27.80
2018-10-11T17:57:46.800Z,30.30
2018-10-11T18:00:15.486Z,29.87
2018-10-11T18:02:44.633Z,28.33
2018-10-11T18:05:13.435Z,24.83
2018-10-11T18:07:42.170Z,26.37
2018-10-11T18:10:10.999Z,26.97
2018-10-11T18:12:39.742Z,29.10
2018-10-11T18:15:08.640Z,29.17
2018-10-11T18:17:37.364Z,30.10
2018-10-11T18:20:06.577Z,29.27
2018-10-11T18:22:35.350Z,31.30
2018-10-11T18:25:04.457Z,30.87
2018-10-11T18:27:33.198Z,38.53
2018-10-11T18:30:02.001Z,37.63
2018-10-11T18:32:30.683Z,37.03
2018-10-11T18:34:59.297Z,36.30
2018-10-11T18:37:27.957Z,46.73
2018-10-11T18:39:56.665Z,59.30
2018-10-11T18:42:25.393Z,36.80
2018-10-11T18:44:54.346Z,37.90
2018-10-11T18:47:23.047Z,35.03
2018-10-11T18:49:51.840Z,32.60
2018-10-11T18:52:20.621Z,33.37
2018-10-11T18:54:50.318Z,27.37
2018-10-11T18:57:19.059Z,31.13
2018-10-11T18:59:47.754Z,25.50
2018-10-11T19:02:16.538Z,29.60
2018-10-11T19:04:45.368Z,27.50
2018-10-11T19:07:14.059Z,26.83
2018-10-11T19:09:42.838Z,27.37
2018-10-11T19:12:11.887Z,27.13
2018-10-11T19:14:40.614Z,24.10
2018-10-11T19:17:09.504Z,27.87
2018-10-11T19:19:38.229Z,28.47
2018-10-11T19:22:07.030Z,24.90
2018-10-11T19:24:35.764Z,26.00
2018-10-11T19:27:04.521Z,23.87
2018-10-11T19:29:33.239Z,28.80
2018-10-11T19:32:02.132Z,29.63
2018-10-11T19:34:31.110Z,26.90
2018-10-11T19:36:59.909Z,26.37
2018-10-11T19:39:28.881Z,35.03
2018-10-11T19:41:57.469Z,34.03
2018-10-11T19:44:26.333Z,31.83
2018-10-11T19:46:55.074Z,31.57
2018-10-11T19:49:24.087Z,29.10
2018-10-11T19:51:53.246Z,32.20
2018-10-11T19:54:21.974Z,33.00
2018-10-11T19:56:50.697Z,29.43
2018-10-11T19:59:20.615Z,34.40
2018-10-11T20:01:49.288Z,33.07
2018-10-11T20:04:17.941Z,30.83
2018-10-11T20:06:46.650Z,33.20
2018-10-11T20:09:15.500Z,32.17
2018-10-11T20:11:44.405Z,31.50
2018-10-11T20:14:13.154Z,27.00
2018-10-11T20:16:42.207Z,31.70
2018-10-11T20:19:10.925Z,32.23
2018-10-11T20:21:39.922Z,31.23
2018-10-11T20:24:08.607Z,34.07
2018-10-11T20:26:37.329Z,33.83
2018-10-11T20:29:06.198Z,32.47
2018-10-11T20:31:34.872Z,31.90
2018-10-11T20:34:03.600Z,36.07
2018-10-11T20:36:32.357Z,29.63
2018-10-11T20:39:01.090Z,34.30
2018-10-11T20:41:29.792Z,31.20
2018-10-11T20:43:58.442Z,34.83
2018-10-11T20:46:27.174Z,32.07
2018-10-11T20:48:55.922Z,32.13
2018-10-11T20:51:24.632Z,35.13
2018-10-11T20:53:53.537Z,34.97
2018-10-11T20:56:22.463Z,39.57
2018-10-11T20:58:51.253Z,36.57
2018-10-11T21:01:20.166Z,28.97
2018-10-11T21:03:48.895Z,32.63
2018-10-11T21:06:17.965Z,30.03
2018-10-11T21:08:54.813Z,33.97
2018-10-11T21:11:23.541Z,28.40
2018-10-11T21:13:53.273Z,28.20
2018-10-11T21:16:22.410Z,22.87
2018-10-11T21:18:53.964Z,22.27
2018-10-11T21:21:22.742Z,20.73
2018-10-11T21:23:51.990Z,22.00
2018-10-11T21:26:20.862Z,25.23
2018-10-11T21:28:49.542Z,21.40
2018-10-11T21:31:18.343Z,22.53
2018-10-11T21:33:47.068Z,23.00
2018-10-11T21:36:15.804Z,19.80
2018-10-11T21:38:44.738Z,22.80
2018-10-11T21:41:13.522Z,19.63
2018-10-11T21:43:42.249Z,18.77
2018-10-11T21:46:10.990Z,22.63
2018-10-11T21:48:40.626Z,19.77
2018-10-11T21:51:09.386Z,23.50
2018-10-11T21:53:38.102Z,21.90
2018-10-11T21:56:06.866Z,21.43
2018-10-11T21:58:35.702Z,26.97
2018-10-11T22:01:09.845Z,23.10
2018-10-11T22:03:38.654Z,20.00
2018-10-11T22:06:07.583Z,21.60
2018-10-11T22:08:36.764Z,21.07
2018-10-11T22:11:05.586Z,31.90
2018-10-11T22:13:34.360Z,20.77
2018-10-11T22:16:03.058Z,22.30
2018-10-11T22:18:31.844Z,19.47
2018-10-11T22:21:00.675Z,22.03
2018-10-11T22:23:29.408Z,24.77
2018-10-11T22:25:58.269Z,27.43
2018-10-11T22:28:27.069Z,26.53
2018-10-11T22:30:55.852Z,23.60
2018-10-11T22:33:25.507Z,25.40
2018-10-11T22:35:54.251Z,23.57
2018-10-11T22:38:23.082Z,25.90
2018-10-11T22:40:51.896Z,25.07
2018-10-11T22:43:20.576Z,24.00
2018-10-11T22:45:49.321Z,28.90
2018-10-11T22:48:18.269Z,41.70
2018-10-11T22:50:47.047Z,28.50
2018-10-11T22:53:15.788Z,25.33
2018-10-11T22:55:44.497Z,26.87
2018-10-11T22:58:13.196Z,27.07
2018-10-11T23:00:41.877Z,25.97
2018-10-11T23:03:10.523Z,26.60
2018-10-11T23:05:39.213Z,23.23
2018-10-11T23:08:07.940Z,23.90
2018-10-11T23:10:36.593Z,28.60
2018-10-11T23:13:05.384Z,25.10
2018-10-11T23:15:34.170Z,25.47
2018-10-11T23:18:03.114Z,23.27
2018-10-11T23:20:31.762Z,26.20
2018-10-11T23:23:00.426Z,25.43
2018-10-11T23:25:29.055Z,24.43
2018-10-11T23:27:57.792Z,23.70
2018-10-11T23:30:26.520Z,25.30
2018-10-11T23:32:55.188Z,29.73
2018-10-11T23:35:23.913Z,23.13
2018-10-11T23:37:52.629Z,29.17
2018-10-11T23:40:21.294Z,28.07
2018-10-11T23:42:49.972Z,26.13
2018-10-11T23:45:18.668Z,25.10
2018-10-11T23:47:47.336Z,24.00
2018-10-11T23:50:16.005Z,29.03
2018-10-11T23:52:44.687Z,33.63
2018-10-11T23:55:13.329Z,25.33
2018-10-11T23:57:42.042Z,25.87
